sensor_id;sensor_type;location;lat;lon;timestamp;P1;durP1;ratioP1;P2;durP2;ratioP2
24485;SDS011;13449;49.374;8.584;2023-08-20T00:01:47;3.90;;;2.88;;
24485;SDS011;13449;49.374;8.584;2023-08-20T00:04:21;6.25;;;2.58;;
24485;SDS011;13449;49.374;8.584;2023-08-20T00:06:52;5.75;;;3.13;;
24485;SDS011;13449;49.374;8.584;2023-08-20T00:09:18;3.17;;;2.50;;
24485;SDS011;13449;49.374;8.584;2023-08-20T00:11:45;4.85;;;2.67;;
24485;SDS011;13449;49.374;8.584;2023-08-20T00:14:15;7.32;;;2.83;;
24485;SDS011;13449;49.374;8.584;2023-08-20T00:16:43;7.20;;;2.40;;
24485;SDS011;13449;49.374;8.584;2023-08-20T00:19:12;4.85;;;3.13;;
24485;SDS011;13449;49.374;8.584;2023-08-20T00:24:09;3.40;;;2.38;;
24485;SDS011;13449;49.374;8.584;2023-08-20T00:26:36;5.93;;;2.67;;
24485;SDS011;13449;49.374;8.584;2023-08-20T00:29:05;12.13;;;3.72;;
24485;SDS011;13449;49.374;8.584;2023-08-20T00:31:33;2.67;;;2.47;;
24485;SDS011;13449;49.374;8.584;2023-08-20T00:34:00;2.33;;;2.13;;
24485;SDS011;13449;49.374;8.584;2023-08-20T00:36:33;2.97;;;2.30;;
24485;SDS011;13449;49.374;8.584;2023-08-20T00:38:59;5.13;;;2.30;;
24485;SDS011;13449;49.374;8.584;2023-08-20T00:41:25;13.15;;;2.90;;
24485;SDS011;13449;49.374;8.584;2023-08-20T00:43:52;8.00;;;2.78;;
24485;SDS011;13449;49.374;8.584;2023-08-20T00:46:18;3.35;;;2.88;;
24485;SDS011;13449;49.374;8.584;2023-08-20T00:48:47;5.15;;;2.72;;
24485;SDS011;13449;49.374;8.584;2023-08-20T00:51:14;3.97;;;2.70;;
24485;SDS011;13449;49.374;8.584;2023-08-20T00:53:40;6.03;;;3.13;;
24485;SDS011;13449;49.374;8.584;2023-08-20T00:56:09;4.80;;;2.90;;
24485;SDS011;13449;49.374;8.584;2023-08-20T00:58:39;3.53;;;2.80;;
24485;SDS011;13449;49.374;8.584;2023-08-20T01:01:05;5.03;;;3.00;;
24485;SDS011;13449;49.374;8.584;2023-08-20T01:03:34;5.20;;;2.78;;
24485;SDS011;13449;49.374;8.584;2023-08-20T01:09:01;4.75;;;2.92;;
24485;SDS011;13449;49.374;8.584;2023-08-20T01:11:37;7.97;;;3.00;;
24485;SDS011;13449;49.374;8.584;2023-08-20T01:14:16;5.15;;;2.67;;
24485;SDS011;13449;49.374;8.584;2023-08-20T01:16:45;4.95;;;3.22;;
24485;SDS011;13449;49.374;8.584;2023-08-20T01:19:15;3.83;;;3.22;;
24485;SDS011;13449;49.374;8.584;2023-08-20T01:26:54;8.13;;;3.55;;
24485;SDS011;13449;49.374;8.584;2023-08-20T01:29:32;5.65;;;3.22;;
24485;SDS011;13449;49.374;8.584;2023-08-20T01:31:59;7.50;;;3.53;;
24485;SDS011;13449;49.374;8.584;2023-08-20T01:34:28;7.00;;;2.90;;
24485;SDS011;13449;49.374;8.584;2023-08-20T01:36:55;7.75;;;2.92;;
24485;SDS011;13449;49.374;8.584;2023-08-20T01:39:21;7.45;;;3.55;;
24485;SDS011;13449;49.374;8.584;2023-08-20T01:41:48;8.32;;;3.15;;
24485;SDS011;13449;49.374;8.584;2023-08-20T01:44:14;5.43;;;3.55;;
24485;SDS011;13449;49.374;8.584;2023-08-20T01:46:41;6.30;;;3.65;;
24485;SDS011;13449;49.374;8.584;2023-08-20T01:49:08;7.00;;;3.97;;
24485;SDS011;13449;49.374;8.584;2023-08-20T01:51:34;6.00;;;3.50;;
24485;SDS011;13449;49.374;8.584;2023-08-20T01:54:02;5.97;;;3.53;;
24485;SDS011;13449;49.374;8.584;2023-08-20T01:56:29;10.43;;;3.90;;
24485;SDS011;13449;49.374;8.584;2023-08-20T01:58:57;6.85;;;3.80;;
24485;SDS011;13449;49.374;8.584;2023-08-20T02:01:28;3.83;;;2.97;;
24485;SDS011;13449;49.374;8.584;2023-08-20T02:03:54;7.80;;;3.83;;
24485;SDS011;13449;49.374;8.584;2023-08-20T02:06:23;7.80;;;3.50;;
24485;SDS011;13449;49.374;8.584;2023-08-20T02:08:49;8.30;;;3.50;;
24485;SDS011;13449;49.374;8.584;2023-08-20T02:11:16;5.20;;;3.70;;
24485;SDS011;13449;49.374;8.584;2023-08-20T02:13:42;4.82;;;3.60;;
24485;SDS011;13449;49.374;8.584;2023-08-20T02:16:09;6.03;;;3.58;;
24485;SDS011;13449;49.374;8.584;2023-08-20T02:18:36;11.10;;;3.67;;
24485;SDS011;13449;49.374;8.584;2023-08-20T02:21:03;6.03;;;4.05;;
24485;SDS011;13449;49.374;8.584;2023-08-20T02:23:30;7.43;;;4.30;;
24485;SDS011;13449;49.374;8.584;2023-08-20T02:25:56;5.43;;;3.65;;
24485;SDS011;13449;49.374;8.584;2023-08-20T02:28:24;8.75;;;3.67;;
24485;SDS011;13449;49.374;8.584;2023-08-20T02:30:50;8.82;;;4.03;;
24485;SDS011;13449;49.374;8.584;2023-08-20T02:33:17;9.15;;;4.13;;
24485;SDS011;13449;49.374;8.584;2023-08-20T02:35:43;8.68;;;4.15;;
24485;SDS011;13449;49.374;8.584;2023-08-20T02:38:10;5.97;;;4.20;;
24485;SDS011;13449;49.374;8.584;2023-08-20T02:40:40;7.57;;;3.97;;
24485;SDS011;13449;49.374;8.584;2023-08-20T02:43:07;8.48;;;4.03;;
24485;SDS011;13449;49.374;8.584;2023-08-20T02:45:43;9.40;;;3.70;;
24485;SDS011;13449;49.374;8.584;2023-08-20T02:48:10;6.88;;;3.83;;
24485;SDS011;13449;49.374;8.584;2023-08-20T02:50:38;7.18;;;4.07;;
24485;SDS011;13449;49.374;8.584;2023-08-20T02:53:05;4.75;;;3.40;;
24485;SDS011;13449;49.374;8.584;2023-08-20T02:55:32;9.73;;;3.75;;
24485;SDS011;13449;49.374;8.584;2023-08-20T02:57:59;5.53;;;4.00;;
24485;SDS011;13449;49.374;8.584;2023-08-20T03:00:29;5.97;;;3.72;;
24485;SDS011;13449;49.374;8.584;2023-08-20T03:02:56;10.27;;;3.88;;
24485;SDS011;13449;49.374;8.584;2023-08-20T03:05:24;9.85;;;4.25;;
24485;SDS011;13449;49.374;8.584;2023-08-20T03:07:53;7.68;;;4.22;;
24485;SDS011;13449;49.374;8.584;2023-08-20T03:10:23;9.50;;;4.60;;
24485;SDS011;13449;49.374;8.584;2023-08-20T03:12:50;6.55;;;4.20;;
24485;SDS011;13449;49.374;8.584;2023-08-20T03:15:16;6.88;;;3.78;;
24485;SDS011;13449;49.374;8.584;2023-08-20T03:17:43;7.18;;;3.72;;
24485;SDS011;13449;49.374;8.584;2023-08-20T03:20:10;8.27;;;5.20;;
24485;SDS011;13449;49.374;8.584;2023-08-20T03:22:39;5.22;;;3.80;;
24485;SDS011;13449;49.374;8.584;2023-08-20T03:25:06;10.80;;;4.65;;
24485;SDS011;13449;49.374;8.584;2023-08-20T03:27:33;4.97;;;2.67;;
24485;SDS011;13449;49.374;8.584;2023-08-20T03:30:01;5.45;;;3.75;;
24485;SDS011;13449;49.374;8.584;2023-08-20T03:32:28;6.00;;;3.55;;
24485;SDS011;13449;49.374;8.584;2023-08-20T03:34:56;6.03;;;3.15;;
24485;SDS011;13449;49.374;8.584;2023-08-20T03:40:13;6.07;;;3.78;;
24485;SDS011;13449;49.374;8.584;2023-08-20T03:42:39;4.82;;;3.95;;
24485;SDS011;13449;49.374;8.584;2023-08-20T03:45:06;9.35;;;4.47;;
24485;SDS011;13449;49.374;8.584;2023-08-20T03:47:33;6.93;;;4.03;;
24485;SDS011;13449;49.374;8.584;2023-08-20T03:50:00;4.60;;;3.42;;
24485;SDS011;13449;49.374;8.584;2023-08-20T03:52:26;6.13;;;4.25;;
24485;SDS011;13449;49.374;8.584;2023-08-20T03:54:52;6.80;;;3.40;;
24485;SDS011;13449;49.374;8.584;2023-08-20T03:57:19;7.28;;;4.50;;
24485;SDS011;13449;49.374;8.584;2023-08-20T03:59:45;16.15;;;4.35;;
24485;SDS011;13449;49.374;8.584;2023-08-20T04:02:12;7.10;;;4.20;;
24485;SDS011;13449;49.374;8.584;2023-08-20T04:04:39;10.10;;;4.75;;
24485;SDS011;13449;49.374;8.584;2023-08-20T04:07:06;8.45;;;5.13;;
24485;SDS011;13449;49.374;8.584;2023-08-20T04:09:33;10.43;;;5.32;;
24485;SDS011;13449;49.374;8.584;2023-08-20T04:12:00;7.65;;;4.68;;
24485;SDS011;13449;49.374;8.584;2023-08-20T04:14:26;9.10;;;4.40;;
24485;SDS011;13449;49.374;8.584;2023-08-20T04:16:53;21.75;;;4.97;;
24485;SDS011;13449;49.374;8.584;2023-08-20T04:19:19;11.88;;;3.92;;
24485;SDS011;13449;49.374;8.584;2023-08-20T04:21:48;13.13;;;5.15;;
24485;SDS011;13449;49.374;8.584;2023-08-20T04:24:14;6.65;;;4.22;;
24485;SDS011;13449;49.374;8.584;2023-08-20T04:26:43;7.75;;;4.68;;
24485;SDS011;13449;49.374;8.584;2023-08-20T04:29:10;5.75;;;3.85;;
24485;SDS011;13449;49.374;8.584;2023-08-20T04:31:36;8.05;;;5.18;;
24485;SDS011;13449;49.374;8.584;2023-08-20T04:34:05;5.95;;;4.32;;
24485;SDS011;13449;49.374;8.584;2023-08-20T04:36:31;8.73;;;3.88;;
24485;SDS011;13449;49.374;8.584;2023-08-20T04:38:58;6.15;;;3.13;;
24485;SDS011;13449;49.374;8.584;2023-08-20T04:41:24;5.20;;;3.45;;
24485;SDS011;13449;49.374;8.584;2023-08-20T04:43:51;4.60;;;3.88;;
24485;SDS011;13449;49.374;8.584;2023-08-20T04:46:17;11.05;;;5.03;;
24485;SDS011;13449;49.374;8.584;2023-08-20T04:48:46;10.10;;;5.13;;
24485;SDS011;13449;49.374;8.584;2023-08-20T04:51:13;9.27;;;3.67;;
24485;SDS011;13449;49.374;8.584;2023-08-20T04:53:39;17.00;;;5.63;;
24485;SDS011;13449;49.374;8.584;2023-08-20T04:56:06;5.88;;;4.32;;
24485;SDS011;13449;49.374;8.584;2023-08-20T04:58:32;15.20;;;6.28;;
24485;SDS011;13449;49.374;8.584;2023-08-20T05:01:01;10.25;;;4.50;;
24485;SDS011;13449;49.374;8.584;2023-08-20T05:03:28;9.48;;;4.45;;
24485;SDS011;13449;49.374;8.584;2023-08-20T05:05:54;11.75;;;6.38;;
24485;SDS011;13449;49.374;8.584;2023-08-20T05:08:21;10.70;;;4.80;;
24485;SDS011;13449;49.374;8.584;2023-08-20T05:10:53;9.50;;;4.90;;
24485;SDS011;13449;49.374;8.584;2023-08-20T05:13:19;13.88;;;5.35;;
24485;SDS011;13449;49.374;8.584;2023-08-20T05:15:46;11.07;;;5.65;;
24485;SDS011;13449;49.374;8.584;2023-08-20T05:18:13;11.57;;;5.65;;
24485;SDS011;13449;49.374;8.584;2023-08-20T05:20:39;12.35;;;4.68;;
24485;SDS011;13449;49.374;8.584;2023-08-20T05:23:06;7.50;;;4.85;;
24485;SDS011;13449;49.374;8.584;2023-08-20T05:25:33;11.52;;;5.28;;
24485;SDS011;13449;49.374;8.584;2023-08-20T05:27:59;7.28;;;4.43;;
24485;SDS011;13449;49.374;8.584;2023-08-20T05:30:27;10.27;;;4.60;;
24485;SDS011;13449;49.374;8.584;2023-08-20T05:32:54;7.28;;;4.88;;
24485;SDS011;13449;49.374;8.584;2023-08-20T05:35:20;5.68;;;4.50;;
24485;SDS011;13449;49.374;8.584;2023-08-20T05:37:47;8.45;;;4.45;;
24485;SDS011;13449;49.374;8.584;2023-08-20T05:40:13;6.85;;;4.20;;
24485;SDS011;13449;49.374;8.584;2023-08-20T05:42:39;6.63;;;4.00;;
24485;SDS011;13449;49.374;8.584;2023-08-20T05:45:06;9.57;;;4.13;;
24485;SDS011;13449;49.374;8.584;2023-08-20T05:47:33;9.27;;;5.05;;
24485;SDS011;13449;49.374;8.584;2023-08-20T05:49:59;12.65;;;4.90;;
24485;SDS011;13449;49.374;8.584;2023-08-20T05:52:26;8.18;;;5.53;;
24485;SDS011;13449;49.374;8.584;2023-08-20T05:54:52;8.00;;;5.50;;
24485;SDS011;13449;49.374;8.584;2023-08-20T05:57:19;8.98;;;5.88;;
24485;SDS011;13449;49.374;8.584;2023-08-20T05:59:46;10.80;;;6.38;;
24485;SDS011;13449;49.374;8.584;2023-08-20T06:02:15;10.00;;;5.93;;
24485;SDS011;13449;49.374;8.584;2023-08-20T06:04:46;13.70;;;5.72;;
24485;SDS011;13449;49.374;8.584;2023-08-20T06:07:12;10.30;;;5.65;;
24485;SDS011;13449;49.374;8.584;2023-08-20T06:09:38;12.43;;;5.93;;
24485;SDS011;13449;49.374;8.584;2023-08-20T06:12:05;13.05;;;6.88;;
24485;SDS011;13449;49.374;8.584;2023-08-20T06:14:32;7.93;;;4.55;;
24485;SDS011;13449;49.374;8.584;2023-08-20T06:16:58;9.35;;;5.32;;
24485;SDS011;13449;49.374;8.584;2023-08-20T06:19:25;15.07;;;5.40;;
24485;SDS011;13449;49.374;8.584;2023-08-20T06:21:55;13.48;;;5.65;;
24485;SDS011;13449;49.374;8.584;2023-08-20T06:24:21;10.20;;;5.32;;
24485;SDS011;13449;49.374;8.584;2023-08-20T06:26:48;7.22;;;4.95;;
24485;SDS011;13449;49.374;8.584;2023-08-20T06:29:14;6.72;;;5.35;;
24485;SDS011;13449;49.374;8.584;2023-08-20T06:31:41;9.90;;;5.18;;
24485;SDS011;13449;49.374;8.584;2023-08-20T06:34:09;11.27;;;5.10;;
24485;SDS011;13449;49.374;8.584;2023-08-20T06:36:36;11.10;;;5.63;;
24485;SDS011;13449;49.374;8.584;2023-08-20T06:39:02;11.57;;;5.35;;
24485;SDS011;13449;49.374;8.584;2023-08-20T06:41:29;15.77;;;6.25;;
24485;SDS011;13449;49.374;8.584;2023-08-20T06:43:55;10.05;;;5.65;;
24485;SDS011;13449;49.374;8.584;2023-08-20T06:46:22;11.15;;;5.05;;
24485;SDS011;13449;49.374;8.584;2023-08-20T06:48:50;15.57;;;5.75;;
24485;SDS011;13449;49.374;8.584;2023-08-20T06:51:19;11.90;;;5.38;;
24485;SDS011;13449;49.374;8.584;2023-08-20T06:53:49;8.13;;;5.03;;
24485;SDS011;13449;49.374;8.584;2023-08-20T06:56:16;9.23;;;5.32;;
24485;SDS011;13449;49.374;8.584;2023-08-20T06:58:42;8.38;;;5.22;;
24485;SDS011;13449;49.374;8.584;2023-08-20T07:01:09;8.80;;;5.68;;
24485;SDS011;13449;49.374;8.584;2023-08-20T07:03:37;14.93;;;6.55;;
24485;SDS011;13449;49.374;8.584;2023-08-20T07:06:07;11.25;;;6.38;;
24485;SDS011;13449;49.374;8.584;2023-08-20T07:08:37;14.90;;;6.30;;
24485;SDS011;13449;49.374;8.584;2023-08-20T07:11:09;10.88;;;5.75;;
24485;SDS011;13449;49.374;8.584;2023-08-20T07:13:36;11.45;;;5.38;;
24485;SDS011;13449;49.374;8.584;2023-08-20T07:16:03;13.80;;;6.38;;
24485;SDS011;13449;49.374;8.584;2023-08-20T07:18:30;12.68;;;5.45;;
24485;SDS011;13449;49.374;8.584;2023-08-20T07:20:57;15.52;;;6.30;;
24485;SDS011;13449;49.374;8.584;2023-08-20T07:23:24;13.80;;;5.97;;
24485;SDS011;13449;49.374;8.584;2023-08-20T07:25:50;13.05;;;6.22;;
24485;SDS011;13449;49.374;8.584;2023-08-20T07:28:18;9.98;;;5.65;;
24485;SDS011;13449;49.374;8.584;2023-08-20T07:31:07;17.67;;;6.43;;
24485;SDS011;13449;49.374;8.584;2023-08-20T07:33:34;10.75;;;6.63;;
24485;SDS011;13449;49.374;8.584;2023-08-20T07:36:00;12.60;;;5.90;;
24485;SDS011;13449;49.374;8.584;2023-08-20T07:38:27;8.80;;;5.78;;
24485;SDS011;13449;49.374;8.584;2023-08-20T07:40:53;24.48;;;5.32;;
24485;SDS011;13449;49.374;8.584;2023-08-20T07:43:20;12.80;;;6.10;;
24485;SDS011;13449;49.374;8.584;2023-08-20T07:45:46;11.68;;;6.65;;
24485;SDS011;13449;49.374;8.584;2023-08-20T07:48:13;18.70;;;6.35;;
24485;SDS011;13449;49.374;8.584;2023-08-20T07:50:40;7.47;;;5.82;;
24485;SDS011;13449;49.374;8.584;2023-08-20T07:53:06;12.43;;;5.43;;
24485;SDS011;13449;49.374;8.584;2023-08-20T07:55:33;15.38;;;5.45;;
24485;SDS011;13449;49.374;8.584;2023-08-20T07:57:59;10.82;;;5.03;;
24485;SDS011;13449;49.374;8.584;2023-08-20T08:00:26;9.90;;;5.53;;
24485;SDS011;13449;49.374;8.584;2023-08-20T08:02:52;9.23;;;5.28;;
24485;SDS011;13449;49.374;8.584;2023-08-20T08:05:19;10.20;;;5.43;;
24485;SDS011;13449;49.374;8.584;2023-08-20T08:07:45;15.27;;;4.80;;
24485;SDS011;13449;49.374;8.584;2023-08-20T08:10:12;6.93;;;4.20;;
24485;SDS011;13449;49.374;8.584;2023-08-20T08:12:38;7.90;;;4.75;;
24485;SDS011;13449;49.374;8.584;2023-08-20T08:15:05;8.15;;;4.35;;
24485;SDS011;13449;49.374;8.584;2023-08-20T08:17:34;10.25;;;4.30;;
24485;SDS011;13449;49.374;8.584;2023-08-20T08:20:01;12.13;;;4.43;;
24485;SDS011;13449;49.374;8.584;2023-08-20T08:22:30;6.68;;;4.60;;
24485;SDS011;13449;49.374;8.584;2023-08-20T08:24:59;7.18;;;4.35;;
24485;SDS011;13449;49.374;8.584;2023-08-20T08:29:57;6.88;;;4.57;;
24485;SDS011;13449;49.374;8.584;2023-08-20T08:32:23;6.18;;;4.18;;
24485;SDS011;13449;49.374;8.584;2023-08-20T08:34:50;7.35;;;4.28;;
24485;SDS011;13449;49.374;8.584;2023-08-20T08:37:16;6.85;;;4.60;;
24485;SDS011;13449;49.374;8.584;2023-08-20T08:39:43;10.15;;;4.47;;
24485;SDS011;13449;49.374;8.584;2023-08-20T08:42:10;12.07;;;3.85;;
24485;SDS011;13449;49.374;8.584;2023-08-20T08:44:37;7.60;;;4.38;;
24485;SDS011;13449;49.374;8.584;2023-08-20T08:47:04;7.53;;;3.88;;
24485;SDS011;13449;49.374;8.584;2023-08-20T08:49:34;5.38;;;3.72;;
24485;SDS011;13449;49.374;8.584;2023-08-20T08:52:01;5.45;;;3.90;;
24485;SDS011;13449;49.374;8.584;2023-08-20T08:54:29;5.63;;;4.47;;
24485;SDS011;13449;49.374;8.584;2023-08-20T08:56:58;6.25;;;3.38;;
24485;SDS011;13449;49.374;8.584;2023-08-20T08:59:25;4.45;;;3.53;;
24485;SDS011;13449;49.374;8.584;2023-08-20T09:01:51;7.28;;;4.10;;
24485;SDS011;13449;49.374;8.584;2023-08-20T09:04:18;6.00;;;4.30;;
24485;SDS011;13449;49.374;8.584;2023-08-20T09:09:11;7.53;;;4.97;;
24485;SDS011;13449;49.374;8.584;2023-08-20T09:11:38;10.18;;;4.13;;
24485;SDS011;13449;49.374;8.584;2023-08-20T09:14:04;5.25;;;4.43;;
24485;SDS011;13449;49.374;8.584;2023-08-20T09:16:33;12.90;;;4.35;;
24485;SDS011;13449;49.374;8.584;2023-08-20T09:19:00;6.47;;;4.05;;
24485;SDS011;13449;49.374;8.584;2023-08-20T09:21:27;4.93;;;3.78;;
24485;SDS011;13449;49.374;8.584;2023-08-20T09:23:56;11.95;;;4.03;;
24485;SDS011;13449;49.374;8.584;2023-08-20T09:26:26;7.82;;;4.43;;
24485;SDS011;13449;49.374;8.584;2023-08-20T09:28:54;8.20;;;3.70;;
24485;SDS011;13449;49.374;8.584;2023-08-20T09:31:36;7.68;;;3.75;;
24485;SDS011;13449;49.374;8.584;2023-08-20T09:34:04;8.60;;;3.55;;
24485;SDS011;13449;49.374;8.584;2023-08-20T09:36:33;5.50;;;3.45;;
24485;SDS011;13449;49.374;8.584;2023-08-20T09:39:01;8.13;;;4.63;;
24485;SDS011;13449;49.374;8.584;2023-08-20T09:41:30;9.27;;;3.42;;
24485;SDS011;13449;49.374;8.584;2023-08-20T09:43:59;5.70;;;3.95;;
24485;SDS011;13449;49.374;8.584;2023-08-20T09:46:26;6.85;;;3.42;;
24485;SDS011;13449;49.374;8.584;2023-08-20T09:48:56;8.43;;;4.00;;
24485;SDS011;13449;49.374;8.584;2023-08-20T09:51:26;4.70;;;3.42;;
24485;SDS011;13449;49.374;8.584;2023-08-20T09:56:44;4.95;;;3.42;;
24485;SDS011;13449;49.374;8.584;2023-08-20T09:59:16;8.48;;;4.00;;
24485;SDS011;13449;49.374;8.584;2023-08-20T10:01:43;4.78;;;3.47;;
24485;SDS011;13449;49.374;8.584;2023-08-20T10:04:10;9.23;;;3.63;;
24485;SDS011;13449;49.374;8.584;2023-08-20T10:06:37;6.78;;;3.13;;
24485;SDS011;13449;49.374;8.584;2023-08-20T10:09:03;7.93;;;3.88;;
24485;SDS011;13449;49.374;8.584;2023-08-20T10:11:32;4.53;;;3.63;;
24485;SDS011;13449;49.374;8.584;2023-08-20T10:13:58;8.18;;;3.45;;
24485;SDS011;13449;49.374;8.584;2023-08-20T10:16:27;6.30;;;3.20;;
24485;SDS011;13449;49.374;8.584;2023-08-20T10:18:53;5.20;;;3.53;;
24485;SDS011;13449;49.374;8.584;2023-08-20T10:21:24;4.55;;;3.05;;
24485;SDS011;13449;49.374;8.584;2023-08-20T10:23:55;5.53;;;3.05;;
24485;SDS011;13449;49.374;8.584;2023-08-20T10:26:21;9.82;;;4.00;;
24485;SDS011;13449;49.374;8.584;2023-08-20T10:28:50;6.35;;;3.50;;
24485;SDS011;13449;49.374;8.584;2023-08-20T10:31:17;4.68;;;3.30;;
24485;SDS011;13449;49.374;8.584;2023-08-20T10:33:50;4.45;;;3.63;;
24485;SDS011;13449;49.374;8.584;2023-08-20T10:36:23;7.30;;;3.50;;
24485;SDS011;13449;49.374;8.584;2023-08-20T10:38:56;3.55;;;2.97;;
24485;SDS011;13449;49.374;8.584;2023-08-20T10:41:29;5.38;;;3.10;;
24485;SDS011;13449;49.374;8.584;2023-08-20T10:43:59;3.05;;;2.70;;
24485;SDS011;13449;49.374;8.584;2023-08-20T10:46:28;8.13;;;3.28;;
24485;SDS011;13449;49.374;8.584;2023-08-20T10:49:01;7.50;;;3.47;;
24485;SDS011;13449;49.374;8.584;2023-08-20T10:51:33;6.68;;;3.45;;
24485;SDS011;13449;49.374;8.584;2023-08-20T10:54:06;6.80;;;3.47;;
24485;SDS011;13449;49.374;8.584;2023-08-20T10:56:47;7.28;;;3.80;;
24485;SDS011;13449;49.374;8.584;2023-08-20T10:59:26;8.00;;;3.63;;
24485;SDS011;13449;49.374;8.584;2023-08-20T11:01:55;7.25;;;3.00;;
24485;SDS011;13449;49.374;8.584;2023-08-20T11:04:27;8.60;;;2.72;;
24485;SDS011;13449;49.374;8.584;2023-08-20T11:06:56;3.92;;;2.97;;
24485;SDS011;13449;49.374;8.584;2023-08-20T11:09:24;3.60;;;2.70;;
24485;SDS011;13449;49.374;8.584;2023-08-20T11:11:57;8.38;;;3.58;;
24485;SDS011;13449;49.374;8.584;2023-08-20T11:14:24;6.82;;;3.03;;
24485;SDS011;13449;49.374;8.584;2023-08-20T11:16:53;3.50;;;2.67;;
24485;SDS011;13449;49.374;8.584;2023-08-20T11:19:20;9.23;;;2.75;;
24485;SDS011;13449;49.374;8.584;2023-08-20T11:21:50;9.35;;;2.83;;
24485;SDS011;13449;49.374;8.584;2023-08-20T11:24:18;5.10;;;2.85;;
24485;SDS011;13449;49.374;8.584;2023-08-20T11:26:46;4.38;;;2.78;;
24485;SDS011;13449;49.374;8.584;2023-08-20T11:29:13;4.47;;;3.55;;
24485;SDS011;13449;49.374;8.584;2023-08-20T11:31:46;6.55;;;3.28;;
24485;SDS011;13449;49.374;8.584;2023-08-20T11:34:13;3.90;;;2.90;;
24485;SDS011;13449;49.374;8.584;2023-08-20T11:36:40;4.00;;;2.72;;
24485;SDS011;13449;49.374;8.584;2023-08-20T11:39:06;4.63;;;2.60;;
24485;SDS011;13449;49.374;8.584;2023-08-20T11:41:37;7.80;;;2.70;;
24485;SDS011;13449;49.374;8.584;2023-08-20T11:44:05;3.70;;;2.88;;
24485;SDS011;13449;49.374;8.584;2023-08-20T11:46:32;10.05;;;3.08;;
24485;SDS011;13449;49.374;8.584;2023-08-20T11:49:09;4.15;;;2.58;;
24485;SDS011;13449;49.374;8.584;2023-08-20T11:51:44;16.35;;;3.13;;
24485;SDS011;13449;49.374;8.584;2023-08-20T11:54:14;7.13;;;3.05;;
24485;SDS011;13449;49.374;8.584;2023-08-20T11:56:43;5.47;;;2.78;;
24485;SDS011;13449;49.374;8.584;2023-08-20T11:59:14;8.07;;;2.70;;
24485;SDS011;13449;49.374;8.584;2023-08-20T12:01:41;9.82;;;2.90;;
24485;SDS011;13449;49.374;8.584;2023-08-20T12:04:09;5.82;;;4.07;;
24485;SDS011;13449;49.374;8.584;2023-08-20T12:06:37;5.47;;;3.33;;
24485;SDS011;13449;49.374;8.584;2023-08-20T12:09:20;6.82;;;3.20;;
24485;SDS011;13449;49.374;8.584;2023-08-20T12:11:48;8.32;;;2.85;;
24485;SDS011;13449;49.374;8.584;2023-08-20T12:14:22;8.10;;;2.78;;
24485;SDS011;13449;49.374;8.584;2023-08-20T12:16:48;6.47;;;3.20;;
24485;SDS011;13449;49.374;8.584;2023-08-20T12:19:17;3.42;;;2.80;;
24485;SDS011;13449;49.374;8.584;2023-08-20T12:21:46;4.38;;;2.55;;
24485;SDS011;13449;49.374;8.584;2023-08-20T12:24:13;8.45;;;2.15;;
24485;SDS011;13449;49.374;8.584;2023-08-20T12:26:42;5.22;;;2.47;;
24485;SDS011;13449;49.374;8.584;2023-08-20T12:29:09;3.17;;;2.25;;
24485;SDS011;13449;49.374;8.584;2023-08-20T12:31:35;7.53;;;2.78;;
24485;SDS011;13449;49.374;8.584;2023-08-20T12:34:02;5.45;;;2.17;;
24485;SDS011;13449;49.374;8.584;2023-08-20T12:36:29;3.65;;;2.83;;
24485;SDS011;13449;49.374;8.584;2023-08-20T12:38:58;4.60;;;2.63;;
24485;SDS011;13449;49.374;8.584;2023-08-20T12:41:25;4.47;;;2.50;;
24485;SDS011;13449;49.374;8.584;2023-08-20T12:43:54;3.65;;;2.63;;
24485;SDS011;13449;49.374;8.584;2023-08-20T12:46:21;4.75;;;3.28;;
24485;SDS011;13449;49.374;8.584;2023-08-20T12:48:49;6.50;;;2.50;;
24485;SDS011;13449;49.374;8.584;2023-08-20T12:51:17;7.40;;;2.80;;
24485;SDS011;13449;49.374;8.584;2023-08-20T12:53:43;3.72;;;2.53;;
24485;SDS011;13449;49.374;8.584;2023-08-20T12:56:13;6.10;;;2.83;;
24485;SDS011;13449;49.374;8.584;2023-08-20T12:58:41;6.10;;;2.78;;
24485;SDS011;13449;49.374;8.584;2023-08-20T13:01:07;6.32;;;2.67;;
24485;SDS011;13449;49.374;8.584;2023-08-20T13:03:34;6.70;;;2.90;;
24485;SDS011;13449;49.374;8.584;2023-08-20T13:06:01;6.10;;;2.50;;
24485;SDS011;13449;49.374;8.584;2023-08-20T13:08:28;3.60;;;2.40;;
24485;SDS011;13449;49.374;8.584;2023-08-20T13:10:57;5.00;;;2.70;;
24485;SDS011;13449;49.374;8.584;2023-08-20T13:13:24;3.33;;;2.40;;
24485;SDS011;13449;49.374;8.584;2023-08-20T13:15:52;7.43;;;2.90;;
24485;SDS011;13449;49.374;8.584;2023-08-20T13:18:20;5.13;;;2.75;;
24485;SDS011;13449;49.374;8.584;2023-08-20T13:20:52;10.07;;;3.40;;
24485;SDS011;13449;49.374;8.584;2023-08-20T13:23:19;3.03;;;2.33;;
24485;SDS011;13449;49.374;8.584;2023-08-20T13:25:48;5.13;;;2.70;;
24485;SDS011;13449;49.374;8.584;2023-08-20T13:28:14;8.15;;;2.67;;
24485;SDS011;13449;49.374;8.584;2023-08-20T13:30:41;4.72;;;2.70;;
24485;SDS011;13449;49.374;8.584;2023-08-20T13:33:07;6.68;;;2.42;;
24485;SDS011;13449;49.374;8.584;2023-08-20T13:35:34;7.57;;;2.88;;
24485;SDS011;13449;49.374;8.584;2023-08-20T13:38:00;2.72;;;2.50;;
24485;SDS011;13449;49.374;8.584;2023-08-20T13:40:27;3.63;;;2.40;;
24485;SDS011;13449;49.374;8.584;2023-08-20T13:42:54;6.15;;;2.42;;
24485;SDS011;13449;49.374;8.584;2023-08-20T13:45:23;2.20;;;2.00;;
24485;SDS011;13449;49.374;8.584;2023-08-20T13:47:50;3.50;;;2.30;;
24485;SDS011;13449;49.374;8.584;2023-08-20T13:50:16;4.07;;;2.72;;
24485;SDS011;13449;49.374;8.584;2023-08-20T13:52:43;4.00;;;2.10;;
24485;SDS011;13449;49.374;8.584;2023-08-20T13:55:09;3.85;;;2.65;;
24485;SDS011;13449;49.374;8.584;2023-08-20T13:57:36;2.92;;;2.35;;
24485;SDS011;13449;49.374;8.584;2023-08-20T14:00:03;4.55;;;2.35;;
24485;SDS011;13449;49.374;8.584;2023-08-20T14:02:35;3.13;;;2.03;;
24485;SDS011;13449;49.374;8.584;2023-08-20T14:05:03;3.95;;;2.08;;
24485;SDS011;13449;49.374;8.584;2023-08-20T14:07:31;4.85;;;2.28;;
24485;SDS011;13449;49.374;8.584;2023-08-20T14:09:58;5.00;;;2.88;;
24485;SDS011;13449;49.374;8.584;2023-08-20T14:12:28;4.47;;;2.40;;
24485;SDS011;13449;49.374;8.584;2023-08-20T14:14:55;4.20;;;2.95;;
24485;SDS011;13449;49.374;8.584;2023-08-20T14:17:22;10.90;;;3.35;;
24485;SDS011;13449;49.374;8.584;2023-08-20T14:19:48;2.92;;;2.53;;
24485;SDS011;13449;49.374;8.584;2023-08-20T14:22:15;5.80;;;2.53;;
24485;SDS011;13449;49.374;8.584;2023-08-20T14:24:41;5.68;;;2.95;;
24485;SDS011;13449;49.374;8.584;2023-08-20T14:27:08;6.00;;;2.60;;
24485;SDS011;13449;49.374;8.584;2023-08-20T14:29:34;3.78;;;2.53;;
24485;SDS011;13449;49.374;8.584;2023-08-20T14:32:04;4.35;;;2.72;;
24485;SDS011;13449;49.374;8.584;2023-08-20T14:34:30;6.80;;;2.85;;
24485;SDS011;13449;49.374;8.584;2023-08-20T14:36:57;7.00;;;2.70;;
24485;SDS011;13449;49.374;8.584;2023-08-20T14:39:26;10.77;;;2.85;;
24485;SDS011;13449;49.374;8.584;2023-08-20T14:41:57;5.38;;;2.20;;
24485;SDS011;13449;49.374;8.584;2023-08-20T14:44:24;6.72;;;3.17;;
24485;SDS011;13449;49.374;8.584;2023-08-20T14:46:53;4.50;;;2.08;;
24485;SDS011;13449;49.374;8.584;2023-08-20T14:49:19;3.45;;;2.75;;
24485;SDS011;13449;49.374;8.584;2023-08-20T14:51:46;7.93;;;2.95;;
24485;SDS011;13449;49.374;8.584;2023-08-20T14:54:15;3.70;;;2.95;;
24485;SDS011;13449;49.374;8.584;2023-08-20T14:56:46;5.85;;;4.05;;
24485;SDS011;13449;49.374;8.584;2023-08-20T14:59:13;6.47;;;2.85;;
24485;SDS011;13449;49.374;8.584;2023-08-20T15:01:39;9.32;;;3.20;;
24485;SDS011;13449;49.374;8.584;2023-08-20T15:04:10;6.88;;;2.70;;
24485;SDS011;13449;49.374;8.584;2023-08-20T15:06:36;3.95;;;2.55;;
24485;SDS011;13449;49.374;8.584;2023-08-20T15:09:05;4.85;;;2.50;;
24485;SDS011;13449;49.374;8.584;2023-08-20T15:11:33;2.60;;;2.40;;